Flight Track Log - Related Links

Times and Time Zones

All times are in EST time to prevent confusion due to time zone crossing. See the QFA974 flight status page for this flight to view local times or setup timezone preferences in your user account.


Time Position Orientation Groundspeed Altitude Reporting Facility
EST Latitude Longitude Course Direction KTS MPH feet Rate Location/Type
Mon 11:05:51 PM -27.3830 153.1250 118° Southeast 11 13  Level FlightAware ADS-B
Mon 11:06:01 PM -27.3840 153.1260 138° Southeast 13 15 62 Level FlightAware ADS-B
Mon 11:06:31 PM -27.3850 153.1250 222° Southwest 14 16 63 Level FlightAware ADS-B
Mon 11:06:51 PM -27.3870 153.1240 204° Southwest 18 21 69 Level FlightAware ADS-B
Mon 11:07:26 PM -27.3890 153.1220 222° Southwest 19 22 73 Level FlightAware ADS-B
Mon 11:07:51 PM -27.3910 153.1210 204° Southwest 13 15 81 Level FlightAware ADS-B
Mon 11:08:36 PM -27.3930 153.1210 180° South 17 20 89 Level FlightAware ADS-B
Mon 11:08:51 PM -27.3940 153.1210 180° South 17 20 107 Level FlightAware ADS-B
Mon 11:09:21 PM -27.3960 153.1210 180° South 9 10 114 Level FlightAware ADS-B
Mon 11:11:00 PM -27.2461 152.9943 27° Northeast  Level Estimated
Mon 11:11:26 PM -27.3960 153.1220 27° Northeast 9 10  Level FlightAware ADS-B
Mon 11:11:51 PM -27.3940 153.1230 24° Northeast 60 69 436 Level FlightAware ADS-B
Mon 11:12:21 PM -27.3790 153.1320 28° Northeast 161 185 400 1,269 Climbing FlightAware ADS-B
Mon 11:12:43 PM -27.3617 153.1416 28° Northeast 160 184 1,100 2,200 Climbing Aus ATC (RADAR)
Mon 11:12:51 PM -27.3580 153.1440 28° Northeast 173 199 1,500 1,636 Climbing FlightAware ADS-B
Mon 11:13:16 PM -27.3380 153.1560 28° Northeast 212 244 2,000 1,277 Climbing FlightAware ADS-B
Mon 11:13:38 PM -27.3142 153.1689 28° Northeast 224 258 2,500 2,200 Climbing Aus ATC (RADAR)
Mon 11:13:46 PM -27.3090 153.1720 28° Northeast 238 274 3,100 2,909 Climbing FlightAware ADS-B
Mon 11:14:11 PM -27.2840 153.1860 26° Northeast 258 297 4,100 1,855 Climbing FlightAware ADS-B
Mon 11:14:41 PM -27.2480 153.2070 27° Northeast 303 349 4,800 1,500 Climbing FlightAware ADS-B
Mon 11:15:11 PM -27.2060 153.2250 21° North 332 382 5,600 1,964 Climbing FlightAware ADS-B
Mon 11:15:36 PM -27.1680 153.2320 North 344 396 6,600 2,000 Climbing FlightAware ADS-B
Mon 11:15:53 PM -27.1351 153.2364 North 350 403 7,000 2,400 Climbing Aus ATC (RADAR)
Mon 11:16:06 PM -27.1180 153.2390 North 362 417 7,800 3,632 Climbing FlightAware ADS-B
Mon 11:16:31 PM -27.0790 153.2450 North 356 410 9,300 2,914 Climbing FlightAware ADS-B
Mon 11:17:16 PM -27.0030 153.2550 North 365 420 11,200 2,571 Climbing FlightAware ADS-B
Mon 11:17:41 PM -26.9610 153.2510 355° North 369 425 12,300 2,553 Climbing FlightAware ADS-B
Mon 11:18:03 PM -26.9173 153.2450 355° North 369 425 13,200 2,400 Climbing Aus ATC (RADAR)
Mon 11:18:26 PM -26.8840 153.2410 355° North 381 438 14,100 2,250 Climbing FlightAware ADS-B
Mon 11:18:43 PM -26.8474 153.2362 355° North 378 435 14,700 2,700 Climbing Aus ATC (RADAR)
Mon 11:19:06 PM -26.8110 153.2320 355° North 383 441 15,900 2,667 Climbing FlightAware ADS-B
Mon 11:19:28 PM -26.7679 153.2260 355° North 380 437 16,700 2,400 Climbing Aus ATC (RADAR)
Mon 11:19:51 PM -26.7310 153.2220 355° North 385 443 17,700 2,381 Climbing FlightAware ADS-B
Mon 11:20:31 PM -26.6610 153.2130 353° North 389 448 19,200 1,950 Climbing FlightAware ADS-B
Mon 11:21:11 PM -26.5870 153.2050 354° North 401 461 20,300 1,624 Climbing FlightAware ADS-B
Mon 11:21:56 PM -26.5020 153.1940 353° North 412 474 21,500 1,482 Climbing FlightAware ADS-B
Mon 11:22:36 PM -26.4250 153.1840 353° North 418 481 22,400 1,418 Climbing FlightAware ADS-B
Mon 11:22:51 PM -26.4000 153.1760 344° North 418 481 22,800 1,600 Climbing FlightAware ADS-B
Mon 11:23:21 PM -26.3530 153.1440 329° Northwest 417 480 23,600 1,457 Climbing FlightAware ADS-B
Mon 11:24:01 PM -26.2880 153.0910 324° Northwest 424 488 24,500 1,200 Climbing FlightAware ADS-B
Mon 11:24:46 PM -26.2130 153.0320 325° Northwest 435 501 25,300 1,014 Climbing FlightAware ADS-B
Mon 11:25:12 PM -26.1648 152.9936 325° Northwest 431 496 25,700 1,350 Climbing Aus ATC (RADAR)
Mon 11:25:26 PM -26.1480 152.9800 325° Northwest 439 505 26,200 1,400 Climbing FlightAware ADS-B
Mon 11:25:42 PM -26.1151 152.9539 325° Northwest 434 499 26,400 1,500 Climbing Aus ATC (RADAR)
Mon 11:26:06 PM -26.0840 152.9290 325° Northwest 440 506 27,200 1,320 Climbing FlightAware ADS-B
Mon 11:26:32 PM -26.0322 152.8884 325° Northwest 435 501 27,500 1,067 Climbing Aus ATC (RADAR)
Mon 11:26:51 PM -26.0060 152.8680 325° Northwest 447 514 28,000 1,054 Climbing FlightAware ADS-B
Mon 11:27:46 PM -25.9120 152.7940 325° Northwest 457 526 28,800 789 Climbing FlightAware ADS-B
Mon 11:28:07 PM -25.8690 152.7603 325° Northwest 453 521 29,000 1,050 Climbing Aus ATC (RADAR)
Mon 11:28:26 PM -25.8420 152.7390 325° Northwest 463 533 29,500 833 Climbing FlightAware ADS-B
Mon 11:28:43 PM -25.8076 152.7123 325° Northwest 457 526 29,500 1,067 Level Aus ATC (RADAR)
Mon 11:29:11 PM -25.7660 152.6800 325° Northwest 464 534 30,300 1,364 Climbing FlightAware ADS-B
Mon 11:29:27 PM -25.7287 152.6504 325° Northwest 457 526 30,500 1,350 Climbing Aus ATC (RADAR)
Mon 11:29:51 PM -25.6910 152.6210 325° Northwest 462 532 31,200 1,350 Climbing FlightAware ADS-B
Mon 11:30:07 PM -25.6587 152.5960 325° Northwest 455 524 31,400 1,200 Climbing Aus ATC (RADAR)
Mon 11:30:36 PM -25.6170 152.5630 325° Northwest 460 529 32,100 1,391 Climbing FlightAware ADS-B
Mon 11:31:16 PM -25.5450 152.5060 324° Northwest 457 526 33,000 1,425 Climbing FlightAware ADS-B
Mon 11:31:56 PM -25.4780 152.4540 325° Northwest 452 520 34,000 1,412 Climbing FlightAware ADS-B
Mon 11:32:41 PM -25.4000 152.3940 325° Northwest 446 513 35,000 1,099 Climbing FlightAware ADS-B
Mon 11:33:07 PM -25.3506 152.3556 325° Northwest 439 505 35,300 1,200 Climbing Aus ATC (RADAR)
Mon 11:33:21 PM -25.3320 152.3400 325° Northwest 442 509 35,800 1,029 Climbing FlightAware ADS-B
Mon 11:33:42 PM -25.2923 152.3100 325° Northwest 436 502 35,900 933 Climbing Aus ATC (RADAR)
Mon 11:34:06 PM -25.2600 152.2830 325° Northwest 439 505 36,500 1,219 Climbing FlightAware ADS-B
Mon 11:34:46 PM -25.1910 152.2290 325° Northwest 434 499 37,200 1,050 Climbing FlightAware ADS-B
Mon 11:35:26 PM -25.1250 152.1770 324° Northwest 423 487 37,900 565 Climbing FlightAware ADS-B
Mon 11:36:11 PM -25.0540 152.1220 325° Northwest 430 495 38,000 71 Climbing FlightAware ADS-B
Mon 11:36:51 PM -24.9890 152.0710 325° Northwest 430 495 38,000  Level FlightAware ADS-B
Mon 11:37:31 PM -24.9220 152.0180 324° Northwest 423 487 38,000  Level FlightAware ADS-B
Mon 11:38:16 PM -24.8500 151.9620 325° Northwest 421 484 38,000 -171 Level FlightAware ADS-B
Mon 11:38:41 PM -24.8047 151.9273 325° Northwest 426 490 37,800  Descending Aus ATC (RADAR)
Mon 11:38:56 PM -24.7850 151.9110 325° Northwest 420 483 38,000 -171 Climbing FlightAware ADS-B
Mon 11:39:16 PM -24.7487 151.8831 325° Northwest 424 488 37,700  Descending Aus ATC (RADAR)
Mon 11:39:41 PM -24.7120 151.8540 325° Northwest 419 482 38,000 -300 Climbing FlightAware ADS-B
Mon 11:39:56 PM -24.6841 151.8331 325° Northwest 425 489 37,500 -2,250 Descending Aus ATC (RADAR)
Mon 11:40:21 PM -24.6480 151.8040 325° Northwest 422 486 36,500 -4,062 Descending FlightAware ADS-B
Mon 11:41:01 PM -24.5800 151.7520 325° Northwest 452 520 33,100 -5,153 Descending FlightAware ADS-B
Mon 11:41:46 PM -24.5000 151.6900 325° Northwest 474 545 29,200 -4,871 Descending FlightAware ADS-B
Mon 11:42:26 PM -24.4280 151.6340 325° Northwest 476 548 26,200 -4,165 Descending FlightAware ADS-B
Mon 11:43:11 PM -24.3490 151.5730 325° Northwest 455 524 23,300 -3,882 Descending FlightAware ADS-B
Mon 11:43:42 PM -24.3052 151.5378 327° Northwest 38,000 -3,900 Climbing Aus ATC (Calculated)
Mon 11:43:51 PM -24.2790 151.5190 325° Northwest 442 509 20,700 -22,333 Descending FlightAware ADS-B
Mon 11:44:36 PM -24.2060 151.4620 325° Northwest 434 499 17,900 -3,882 Descending FlightAware ADS-B
Mon 11:44:52 PM -24.2078 151.4622 325° Northwest 38,000 -4,050 Climbing Aus ATC (Calculated)
Mon 11:45:16 PM -24.1390 151.4100 325° Northwest 416 479 15,200 -23,438 Descending FlightAware ADS-B
Mon 11:45:51 PM -24.1606 151.4256 333° Northwest 38,000 -3,300 Climbing Aus ATC (Calculated)
Mon 11:45:56 PM -24.0700 151.3760 325° Northwest 416 479 13,000 -44,400 Descending FlightAware ADS-B
Mon 11:46:26 PM -24.0150 151.3910 14° North 398 458 12,100 -1,114 Descending FlightAware ADS-B
Mon 11:46:26 PM -24.1141 151.3896 North 38,000 -600 Climbing Aus ATC (Calculated)
Mon 11:46:48 PM -24.0684 151.3542 24° Northeast 38,000 -39,450 Level Aus ATC (Calculated)
Mon 11:47:06 PM -23.9460 151.4130 14° North 351 404 11,700 -48,000 Descending FlightAware ADS-B
Mon 11:47:21 PM -23.9220 151.4120 358° North 342 394 11,600 -200 Descending FlightAware ADS-B
Mon 11:47:36 PM -23.9000 151.4050 344° North 316 364 11,600 -109 Level FlightAware ADS-B
Mon 11:48:11 PM -23.8917 151.2178 73° East 38,000 -150 Climbing Aus ATC (Calculated)
Mon 11:48:16 PM -23.8490 151.3750 344° North 302 348 11,500 -31,800 Descending FlightAware ADS-B
Mon 11:48:22 PM -23.8917 151.2178 48° Northeast 38,000  Climbing Aus ATC (Calculated)
Mon 11:48:59 PM -23.8494 151.1852 69° East 38,000 -40,769 Level Aus ATC (Calculated)
Mon 11:49:01 PM -23.7990 151.3320 344° North 299 344 11,500 -37,857 Descending FlightAware ADS-B
Mon 11:49:26 PM -23.8078 151.1532 68° East 38,000  Climbing Aus ATC (Calculated)
Mon 11:49:41 PM -23.7570 151.2930 344° North 302 348 11,500 -28,909 Descending FlightAware ADS-B
Mon 11:50:00 PM -23.7258 151.0902 85° East 38,000  Climbing Aus ATC (Calculated)
Mon 11:50:21 PM -23.7120 151.2500 344° North 303 349 11,500 -24,091 Descending FlightAware ADS-B
Mon 11:51:06 PM -23.6640 151.2050 344° North 301 346 11,500  Level FlightAware ADS-B
Mon 11:51:46 PM -23.6220 151.1650 319° Northwest 302 348 11,500 -212 Level FlightAware ADS-B
Mon 11:52:31 PM -23.5760 151.1230 320° Northwest 279 321 11,200 -565 Descending FlightAware ADS-B
Mon 11:52:41 PM -23.4873 150.9075 110° East 38,000 -750 Climbing Aus ATC (Calculated)
Mon 11:52:55 PM -23.4873 150.9075 110° East 38,000 -54,600 Level Aus ATC (Calculated)
Mon 11:53:11 PM -23.5450 151.0820 320° Northwest 258 297 10,700 -36,000 Descending FlightAware ADS-B
Mon 11:53:41 PM -23.5550 151.0470 320° Northwest 236 272 10,400 -600 Descending FlightAware ADS-B
Mon 11:53:51 PM -23.5630 151.0420 210° Southwest 232 267 10,300 -480 Descending FlightAware ADS-B
Mon 11:54:06 PM -23.5810 151.0380 192° South 245 282 10,200 -133 Descending FlightAware ADS-B
Mon 11:54:36 PM -23.6150 151.0330 188° South 239 275 10,200  Level FlightAware ADS-B
Mon 11:54:45 PM -23.2755 150.7459 147° Southeast 38,000  Climbing Aus ATC (Calculated)
Mon 11:55:16 PM -23.6590 151.0160 188° South 242 278 10,200 -21,947 Descending FlightAware ADS-B
Mon 11:56:01 PM -23.7070 150.9980 199° South 242 278 10,200  Level FlightAware ADS-B
Mon 11:56:41 PM -23.7500 150.9810 200° South 238 274 10,200  Level FlightAware ADS-B
Mon 11:57:21 PM -23.7930 150.9630 201° Southwest 239 275 10,200  Level FlightAware ADS-B
Mon 11:58:06 PM -23.8420 150.9440 200° South 244 281 10,200  Level FlightAware ADS-B
Mon 11:58:46 PM -23.8860 150.9260 201° Southwest 240 276 10,200  Level FlightAware ADS-B
Mon 11:59:31 PM -23.9340 150.9060 201° Southwest 245 282 10,200  Level FlightAware ADS-B
Tue 12:00:01 AM -23.9670 150.8930 200° South 243 280 10,200 -218 Level FlightAware ADS-B
Tue 12:00:15 AM -22.7016 150.3113 158° South 38,000 -480 Climbing Aus ATC (Calculated)
Tue 12:00:26 AM -23.9930 150.8800 200° South 245 282 10,000 -64,846 Descending FlightAware ADS-B
Tue 12:00:41 AM -24.0030 150.8640 236° Southwest 254 292 9,900 -480 Descending FlightAware ADS-B
Tue 12:00:51 AM -24.0050 150.8510 260° West 261 300 9,800 -750 Descending FlightAware ADS-B
Tue 12:01:21 AM -23.9880 150.8170 299° West 264 304 9,400 -800 Descending FlightAware ADS-B
Tue 12:01:29 AM -22.5615 150.2059 159° South 38,000 -800 Climbing Aus ATC (Calculated)
Tue 12:01:36 AM -23.9710 150.8080 334° Northwest 275 316 9,200 -78,545 Descending FlightAware ADS-B
Tue 12:01:51 AM -23.9530 150.8020 334° Northwest 271 312 9,200  Level FlightAware ADS-B
Tue 12:02:09 AM -22.4748 150.1408 158° South 38,000  Climbing Aus ATC (Calculated)
Tue 12:02:16 AM -23.9230 150.7910 341° North 272 313 9,200 -46,703 Descending FlightAware ADS-B
Tue 12:02:46 AM -23.8870 150.7780 342° North 269 310 9,200  Level FlightAware ADS-B
Tue 12:03:11 AM -23.8570 150.7680 343° North 270 311 9,200  Level FlightAware ADS-B
Tue 12:03:41 AM -23.8210 150.7550 343° North 272 313 9,200  Level FlightAware ADS-B
Tue 12:03:49 AM -22.3121 150.0189 156° South 38,000  Climbing Aus ATC (Calculated)
Tue 12:04:06 AM -23.7930 150.7410 343° North 265 305 9,200 -41,143 Descending FlightAware ADS-B
Tue 12:04:31 AM -23.7680 150.7240 328° Northwest 266 306 9,200  Level FlightAware ADS-B
Tue 12:05:06 AM -23.7300 150.7000 330° Northwest 268 308 9,200  Level FlightAware ADS-B
Tue 12:05:21 AM -23.7140 150.6840 318° Northwest 258 297 9,200  Level FlightAware ADS-B
Tue 12:05:23 AM -22.1697 149.9125 156° South 38,000  Climbing Aus ATC (Calculated)
Tue 12:05:56 AM -23.6950 150.6620 318° Northwest 258 297 9,200 -52,364 Descending FlightAware ADS-B
Tue 12:07:58 AM -21.8845 149.7002 153° Southeast 38,000 14,164 Climbing Aus ATC (Calculated)
Tue 12:08:00 AM -23.5545 150.6151 343° North  Level FlightAware Approximate
Tue 12:08:06 AM -21.8845 149.7002 130° Southeast 38,000  Level Aus ATC (Calculated)
Tue 12:10:00 AM -21.9716 149.8115 130° Southeast  Level FlightAware Approximate
Tue 12:10:26 AM -21.6393 149.5186 135° Southeast 38,000  Level Aus ATC (Calculated)
Tue 12:12:00 AM -21.7185 149.6029 135° Southeast  Level FlightAware Approximate
Tue 12:12:53 AM -21.3905 149.3351 142° Southeast 38,000  Level Aus ATC (Calculated)
Tue 12:13:00 AM -21.7691 149.6568 135° Southeast  Level FlightAware Approximate
Tue 12:13:53 AM -21.2807 149.2543 139° Southeast 38,000  Level Aus ATC (Calculated)
Tue 12:15:00 AM -21.3612 149.3300 139° Southeast  Level FlightAware Approximate
Tue 12:16:00 AM -21.4333 149.3980 139° Southeast  Level FlightAware Approximate
Tue 12:16:03 AM -21.1121 149.0545 312° West 38,000  Level Aus ATC (Calculated)
Tue 12:16:55 AM -21.0488 148.9797 137° Southeast 38,000  Level Aus ATC (Calculated)
Tue 12:18:00 AM -21.1056 149.0355 137° Southeast  Level FlightAware Approximate
Tue 12:18:03 AM -20.9934 148.9143 312° West 38,000  Level Aus ATC (Calculated)
Tue 12:18:31 AM -20.9449 148.8571 312° West 38,000  Level Aus ATC (Calculated)
Tue 12:19:03 AM -20.9024 148.8071 312° West 38,000  Level Aus ATC (Calculated)
Tue 12:19:43 AM -20.8280 148.7196 312° West 38,000  Level Aus ATC (Calculated)
Tue 12:20:48 AM -20.7164 148.5885 134° Southeast 38,000  Level Aus ATC (Calculated)
Tue 12:21:00 AM -20.8945 148.7866 137° Southeast  Level FlightAware Approximate
Tue 12:22:00 AM -20.7782 148.6514 136° Southeast  Level FlightAware Approximate
Tue 12:23:00 AM -20.8297 148.7039 136° Southeast  Level FlightAware Approximate
Tue 12:23:47 AM -20.4965 148.3203 129° Southeast 27,300  Level Aus ATC (Calculated)
Tue 12:23:47 AM -20.4965 148.3203 136° Southeast 27,300  Level Aus ATC (Calculated)
Tue 12:25:00 AM -20.5508 148.3766 136° Southeast  Level FlightAware Approximate
Tue 12:25:42 AM -20.3340 148.1147 132° Southeast 27,300  Level Aus ATC (Calculated)
Tue 12:26:00 AM -20.5954 148.4230 136° Southeast  Level FlightAware Approximate
Tue 12:27:00 AM -20.3997 148.1840 135° Southeast  Level FlightAware Approximate

Login

Don't have an account? Register now (free) for customized features, flight alerts, and more!